| time (UTC) | temp C | wind direction | speed KPH | gust KPH | rain 1hr cm | rain 24hr cm | rain mn cm | humidity % | barometer mb |
| 20260906211658 | 21 | 181 | 1.6 | 4.8 | 0.61 | 0.61 | 0.61 | 84 | 992.5 |
| 20260906211158 | 21 | 159 | 3.2 | 11.3 | 0.61 | 0.61 | 0.61 | 81 | 992.5 |
| 20260906210658 | 20 | 177 | 4.8 | 11.3 | 0.61 | 0.61 | 0.61 | 80 | 992.5 |
| 20260906210158 | 20 | 221 | 4.8 | 11.3 | 0.58 | 0.58 | 0.58 | 80 | 992.7 |
| 20260906205658 | 20 | 148 | 4.8 | 22.5 | 0.58 | 0.58 | 0.58 | 76 | 992.7 |
| 20260906205158 | 21 | 173 | 4.8 | 8.0 | 0.38 | 0.38 | 0.38 | 78 | 992.7 |
| 20260906204658 | 22 | 220 | 4.8 | 8.0 | 0.38 | 0.38 | 0.38 | 75 | 992.3 |
| 20260906204158 | 23 | 177 | 4.8 | 8.0 | 0.30 | 0.30 | 0.30 | 69 | 992.3 |
| 20260906203658 | 24 | 174 | 4.8 | 8.0 | 0.18 | 0.18 | 0.18 | 64 | 992.3 |
| 20260906203158 | 26 | 180 | 3.2 | 9.7 | 0.10 | 0.10 | 0.10 | 57 | 991.0 |
| 20260906202658 | 28 | 169 | 3.2 | 11.3 | 0.05 | 0.05 | 0.05 | 48 | 991.0 |
| 20260906202158 | 28 | 94 | 3.2 | 9.7 | 0.03 | 0.03 | 0.03 | 45 | 991.0 |
| 20260906201658 | 30 | 136 | 4.8 | 8.0 | 0.00 | 0.00 | 0.00 | 38 | 990.8 |
| 20260906201158 | 30 | 108 | 6.4 | 17.7 | 0.00 | 0.00 | 0.00 | 37 | 990.8 |
| 20260906200658 | 30 | 99 | 8.0 | 17.7 | 0.00 | 0.00 | 0.00 | 35 | 990.8 |
| 20260906200158 | 30 | 71 | 8.0 | 16.1 | 0.00 | 0.00 | 0.00 | 34 | 990.5 |
| 20260906195658 | 31 | 140 | 8.0 | 24.1 | 0.00 | 0.00 | 0.00 | 34 | 990.5 |
| 20260906195158 | 31 | 173 | 8.0 | 16.1 | 0.00 | 0.00 | 0.00 | 33 | 990.5 |
| 20260906194658 | 31 | 105 | 6.4 | 17.7 | 0.00 | 0.00 | 0.00 | 33 | 989.7 |
| 20260906194158 | 32 | 96 | 6.4 | 16.1 | 0.00 | 0.00 | 0.00 | 32 | 989.7 |
| 20260906193658 | 32 | 57 | 8.0 | 22.5 | 0.00 | 0.00 | 0.00 | 32 | 989.7 |
| 20260906193158 | 32 | 90 | 9.7 | 19.3 | 0.00 | 0.00 | 0.00 | 33 | 989.7 |
| 20260906192658 | 32 | 71 | 9.7 | 17.7 | 0.00 | 0.00 | 0.00 | 33 | 989.7 |
| 20260906192158 | 32 | 163 | 11.3 | 30.6 | 0.00 | 0.00 | 0.00 | 33 | 989.7 |
| 20260906191658 | 32 | 213 | 11.3 | 22.5 | 0.00 | 0.00 | 0.00 | 32 | 989.7 |
| 20260906191158 | 32 | 88 | 9.7 | 14.5 | 0.00 | 0.00 | 0.00 | 32 | 989.7 |
| 20260906190658 | 32 | 92 | 9.7 | 20.9 | 0.00 | 0.00 | 0.00 | 32 | 989.7 |
| 20260906190158 | 32 | 126 | 9.7 | 16.1 | 0.00 | 0.00 | 0.00 | 32 | 989.6 |
| 20260906185658 | 32 | 105 | 9.7 | 22.5 | 0.00 | 0.00 | 0.00 | 32 | 989.6 |
| 20260906185158 | 32 | 98 | 8.0 | 22.5 | 0.00 | 0.00 | 0.00 | 32 | 989.6 |
| 20260906184658 | 32 | 75 | 6.4 | 25.7 | 0.00 | 0.00 | 0.00 | 32 | 989.9 |
| 20260906184158 | 32 | 134 | 6.4 | 19.3 | 0.00 | 0.00 | 0.00 | 32 | 989.9 |
| 20260906183658 | 32 | 144 | 8.0 | 17.7 | 0.00 | 0.00 | 0.00 | 33 | 989.9 |
| 20260906183158 | 32 | 115 | 8.0 | 16.1 | 0.00 | 0.00 | 0.00 | 32 | 990.0 |
| 20260906182658 | 32 | 115 | 8.0 | 16.1 | 0.00 | 0.00 | 0.00 | 33 | 990.0 |
| 20260906182158 | 32 | 69 | 8.0 | 25.7 | 0.00 | 0.00 | 0.00 | 32 | 990.0 |
| 20260906181658 | 32 | 146 | 8.0 | 17.7 | 0.00 | 0.00 | 0.00 | 33 | 990.3 |
| 20260906181158 | 32 | 125 | 8.0 | 14.5 | 0.00 | 0.00 | 0.00 | 33 | 990.3 |
| 20260906180658 | 32 | 119 | 6.4 | 16.1 | 0.00 | 0.00 | 0.00 | 33 | 990.3 |
| 20260906180158 | 32 | 109 | 6.4 | 11.3 | 0.00 | 0.00 | 0.00 | 33 | 990.7 |
| 20260906175658 | 32 | 99 | 8.0 | 16.1 | 0.00 | 0.00 | 0.00 | 33 | 990.7 |
| 20260906175158 | 32 | 68 | 8.0 | 14.5 | 0.00 | 0.00 | 0.00 | 34 | 990.7 |
| 20260906174658 | 32 | 74 | 8.0 | 16.1 | 0.00 | 0.00 | 0.00 | 33 | 991.4 |
| 20260906174158 | 31 | 168 | 8.0 | 22.5 | 0.00 | 0.00 | 0.00 | 34 | 991.4 |
| 20260906173659 | 32 | 100 | 9.7 | 19.3 | 0.00 | 0.00 | 0.00 | 34 | 991.4 |
| 20260906173159 | 32 | 68 | 8.0 | 19.3 | 0.00 | 0.00 | 0.00 | 33 | 991.7 |
| 20260906172659 | 32 | 71 | 8.0 | 12.9 | 0.00 | 0.00 | 0.00 | 33 | 991.7 |
| 20260906172159 | 31 | 94 | 6.4 | 14.5 | 0.00 | 0.00 | 0.00 | 33 | 991.7 |
| 20260906171659 | 31 | 91 | 8.0 | 19.3 | 0.00 | 0.00 | 0.00 | 33 | 991.9 |
| 20260906171159 | 31 | 97 | 8.0 | 19.3 | 0.00 | 0.00 | 0.00 | 34 | 991.9 |
| 20260906170659 | 31 | 132 | 8.0 | 20.9 | 0.00 | 0.00 | 0.00 | 34 | 991.9 |
| 20260906170159 | 31 | 137 | 8.0 | 20.9 | 0.00 | 0.00 | 0.00 | 34 | 992.0 |
| 20260906165659 | 32 | 68 | 8.0 | 24.1 | 0.00 | 0.00 | 0.00 | 33 | 992.0 |
| 20260906165159 | 31 | 71 | 6.4 | 17.7 | 0.00 | 0.00 | 0.00 | 34 | 992.0 |
| 20260906164659 | 31 | 92 | 6.4 | 17.7 | 0.00 | 0.00 | 0.00 | 34 | 991.7 |
| 20260906164159 | 31 | 165 | 6.4 | 14.5 | 0.00 | 0.00 | 0.00 | 35 | 991.7 |
| 20260906163659 | 31 | 92 | 6.4 | 20.9 | 0.00 | 0.00 | 0.00 | 35 | 991.7 |
| 20260906163159 | 31 | 104 | 4.8 | 9.7 | 0.00 | 0.00 | 0.00 | 35 | 992.1 |
| 20260906162659 | 31 | 65 | 6.4 | 8.0 | 0.00 | 0.00 | 0.00 | 36 | 992.1 |
| 20260906162159 | 31 | 73 | 4.8 | 11.3 | 0.00 | 0.00 | 0.00 | 36 | 992.1 |
| 20260906161659 | 30 | 141 | 4.8 | 9.7 | 0.00 | 0.00 | 0.00 | 37 | 992.2 |
| 20260906161159 | 30 | 71 | 4.8 | 11.3 | 0.00 | 0.00 | 0.00 | 37 | 992.2 |
| 20260906160659 | 30 | 153 | 4.8 | 9.7 | 0.00 | 0.00 | 0.00 | 36 | 992.2 |
| 20260906160159 | 30 | 184 | 4.8 | 9.7 | 0.00 | 0.00 | 0.00 | 36 | 992.5 |
| 20260906155659 | 30 | 160 | 4.8 | 8.0 | 0.00 | 0.00 | 0.00 | 36 | 992.5 |
| 20260906155159 | 30 | 159 | 4.8 | 11.3 | 0.00 | 0.00 | 0.00 | 36 | 992.5 |
| 20260906154659 | 30 | 126 | 3.2 | 9.7 | 0.00 | 0.00 | 0.00 | 36 | 992.1 |
| 20260906154159 | 29 | 136 | 1.6 | 6.4 | 0.00 | 0.00 | 0.00 | 38 | 992.1 |
| 20260906153659 | 28 | 190 | 3.2 | 6.4 | 0.00 | 0.00 | 0.00 | 38 | 992.1 |
| 20260906153159 | 28 | 188 | 1.6 | 6.4 | 0.00 | 0.00 | 0.00 | 39 | 992.3 |
| 20260906152659 | 28 | 188 | 1.6 | 3.2 | 0.00 | 0.00 | 0.00 | 39 | 992.3 |
| 20260906152159 | 28 | 132 | 4.8 | 9.7 | 0.00 | 0.00 | 0.00 | 43 | 992.3 |
| 20260906151659 | 28 | 73 | 4.8 | 9.7 | 0.00 | 0.00 | 0.00 | 44 | 992.4 |
| 20260906151159 | 28 | 87 | 3.2 | 6.4 | 0.00 | 0.00 | 0.00 | 45 | 992.4 |
| 20260906150659 | 27 | 69 | 1.6 | 6.4 | 0.00 | 0.00 | 0.00 | 44 | 992.4 |
| 20260906150159 | 27 | 68 | 1.6 | 4.8 | 0.00 | 0.00 | 0.00 | 45 | 992.9 |
| 20260906145659 | 27 | 68 | 3.2 | 3.2 | 0.00 | 0.00 | 0.00 | 45 | 992.9 |
| 20260906145159 | 27 | 68 | 1.6 | 6.4 | 0.00 | 0.00 | 0.00 | 47 | 992.9 |
| 20260906144659 | 26 | 67 | 1.6 | 4.8 | 0.00 | 0.00 | 0.00 | 47 | 993.1 |
| 20260906144159 | 26 | 67 | 3.2 | 4.8 | 0.00 | 0.00 | 0.00 | 48 | 993.1 |
| 20260906143659 | 26 | 67 | 3.2 | 6.4 | 0.00 | 0.00 | 0.00 | 48 | 993.1 |
| 20260906143159 | 26 | 67 | 1.6 | 6.4 | 0.00 | 0.00 | 0.00 | 47 | 993.2 |
| 20260906142659 | 26 | 67 | 1.6 | 4.8 | 0.00 | 0.00 | 0.00 | 48 | 993.2 |
| 20260906142159 | 26 | 67 | 1.6 | 4.8 | 0.00 | 0.00 | 0.00 | 48 | 993.2 |
| 20260906141659 | 25 | 67 | 1.6 | 3.2 | 0.00 | 0.00 | 0.00 | 49 | 993.3 |
| 20260906141159 | 25 | 67 | 1.6 | 3.2 | 0.00 | 0.00 | 0.00 | 50 | 993.3 |
| 20260906140659 | 25 | 67 | 1.6 | 4.8 | 0.00 | 0.00 | 0.00 | 51 | 993.3 |
| 20260906140159 | 25 | 67 | 1.6 | 3.2 | 0.00 | 0.00 | 0.00 | 50 | 993.5 |
| 20260906135659 | 25 | 67 | 0.0 | 1.6 | 0.00 | 0.00 | 0.00 | 52 | 993.5 |
| 20260906135159 | 25 | 67 | 0.0 | 1.6 | 0.00 | 0.00 | 0.00 | 50 | 993.5 |
| 20260906134659 | 25 | 67 | 0.0 | 0.0 | 0.00 | 0.00 | 0.00 | 51 | 993.6 |
| 20260906134159 | 24 | 67 | 0.0 | 0.0 | 0.00 | 0.00 | 0.00 | 53 | 993.6 |
| 20260906133659 | 23 | 67 | 0.0 | 0.0 | 0.00 | 0.00 | 0.00 | 56 | 993.6 |
| 20260906133159 | 23 | 67 | 0.0 | 0.0 | 0.00 | 0.00 | 0.00 | 57 | 993.7 |
| 20260906132659 | 22 | 67 | 0.0 | 3.2 | 0.00 | 0.00 | 0.00 | 57 | 993.7 |
| 20260906132159 | 22 | 67 | 0.0 | 3.2 | 0.00 | 0.00 | 0.00 | 58 | 993.7 |
| 20260906131659 | 22 | 67 | 0.0 | 0.0 | 0.00 | 0.00 | 0.00 | 58 | 993.6 |
| 20260906131159 | 22 | 67 | 0.0 | 0.0 | 0.00 | 0.00 | 0.00 | 58 | 993.6 |
| 20260906130659 | 22 | 67 | 0.0 | 1.6 | 0.00 | 0.00 | 0.00 | 58 | 993.6 |
| 20260906130159 | 22 | 67 | 0.0 | 0.0 | 0.00 | 0.00 | 0.00 | 58 | 993.4 |
| 20260906125659 | 21 | 67 | 0.0 | 0.0 | 0.00 | 0.00 | 0.00 | 58 | 993.4 |
| 20260906125159 | 21 | 67 | 1.6 | 1.6 | 0.00 | 0.00 | 0.00 | 59 | 993.4 |
| 20260906124659 | 21 | 67 | 1.6 | 4.8 | 0.00 | 0.00 | 0.00 | 59 | 993.0 |
| 20260906124159 | 21 | 67 | 0.0 | 3.2 | 0.00 | 0.00 | 0.00 | 58 | 993.0 |
| 20260906123659 | 21 | 67 | 0.0 | 1.6 | 0.00 | 0.00 | 0.00 | 58 | 993.0 |
| 20260906123159 | 21 | 67 | 0.0 | 1.6 | 0.00 | 0.00 | 0.00 | 59 | 992.9 |
| 20260906122659 | 21 | 67 | 1.6 | 3.2 | 0.00 | 0.00 | 0.00 | 59 | 992.9 |
| 20260906122159 | 21 | 67 | 1.6 | 6.4 | 0.00 | 0.00 | 0.00 | 59 | 992.9 |
| 20260906121659 | 21 | 67 | 1.6 | 3.2 | 0.00 | 0.00 | 0.00 | 59 | 992.9 |
| 20260906121159 | 21 | 67 | 1.6 | 4.8 | 0.00 | 0.00 | 0.00 | 58 | 992.9 |
| 20260906120659 | 22 | 67 | 0.0 | 3.2 | 0.00 | 0.00 | 0.00 | 57 | 992.9 |
| 20260906120159 | 22 | 67 | 0.0 | 0.0 | 0.00 | 0.00 | 0.00 | 57 | 992.5 |
| 20260906115659 | 22 | 67 | 1.6 | 4.8 | 0.00 | 0.00 | 0.00 | 57 | 992.5 |
| 20260906115159 | 22 | 67 | 1.6 | 4.8 | 0.00 | 0.00 | 0.00 | 56 | 992.5 |
| 20260906114659 | 22 | 67 | 3.2 | 8.0 | 0.00 | 0.00 | 0.00 | 56 | 992.4 |
| 20260906114159 | 22 | 86 | 1.6 | 6.4 | 0.00 | 0.00 | 0.00 | 55 | 992.4 |
| 20260906113659 | 22 | 87 | 1.6 | 6.4 | 0.00 | 0.00 | 0.00 | 55 | 992.4 |
| 20260906113159 | 23 | 38 | 3.2 | 4.8 | 0.00 | 0.00 | 0.00 | 54 | 992.5 |
| 20260906112659 | 23 | 38 | 3.2 | 8.0 | 0.00 | 0.00 | 0.00 | 54 | 992.5 |
| 20260906112159 | 23 | 46 | 3.2 | 4.8 | 0.00 | 0.00 | 0.00 | 54 | 992.5 |
| 20260906111659 | 23 | 50 | 3.2 | 11.3 | 0.00 | 0.00 | 0.00 | 55 | 992.6 |
| 20260906111159 | 23 | 32 | 3.2 | 9.7 | 0.00 | 0.00 | 0.00 | 55 | 992.6 |
| 20260906110659 | 22 | 11 | 1.6 | 6.4 | 0.00 | 0.00 | 0.00 | 55 | 992.6 |
| 20260906110159 | 22 | 11 | 0.0 | 3.2 | 0.00 | 0.00 | 0.00 | 55 | 992.4 |
| 20260906105659 | 23 | 11 | 1.6 | 3.2 | 0.00 | 0.00 | 0.00 | 54 | 992.4 |
| 20260906105159 | 23 | 11 | 1.6 | 6.4 | 0.00 | 0.00 | 0.00 | 54 | 992.4 |
| 20260906104659 | 23 | 9 | 1.6 | 3.2 | 0.00 | 0.00 | 0.00 | 54 | 992.4 |
| 20260906104159 | 23 | 9 | 3.2 | 3.2 | 0.00 | 0.00 | 0.00 | 54 | 992.4 |
| 20260906103659 | 23 | 9 | 3.2 | 9.7 | 0.00 | 0.00 | 0.00 | 54 | 992.4 |
| 20260906103159 | 23 | 66 | 3.2 | 8.0 | 0.00 | 0.00 | 0.00 | 54 | 992.4 |
| 20260906102659 | 23 | 52 | 1.6 | 4.8 | 0.00 | 0.00 | 0.00 | 53 | 992.4 |
| 20260906102159 | 23 | 52 | 0.0 | 3.2 | 0.00 | 0.00 | 0.00 | 53 | 992.4 |
| 20260906101659 | 23 | 52 | 1.6 | 6.4 | 0.00 | 0.00 | 0.00 | 52 | 992.4 |
| 20260906101159 | 23 | 53 | 1.6 | 4.8 | 0.00 | 0.00 | 0.00 | 52 | 992.4 |
| 20260906100659 | 23 | 24 | 0.0 | 1.6 | 0.00 | 0.00 | 0.00 | 51 | 992.4 |
| 20260906100159 | 24 | 23 | 1.6 | 3.2 | 0.00 | 0.00 | 0.00 | 51 | 991.6 |
| 20260906095659 | 24 | 23 | 4.8 | 8.0 | 0.00 | 0.00 | 0.00 | 50 | 991.6 |
| 20260906095159 | 24 | 30 | 6.4 | 8.0 | 0.00 | 0.00 | 0.00 | 50 | 991.6 |
| 20260906094659 | 24 | 228 | 8.0 | 17.7 | 0.00 | 0.00 | 0.00 | 49 | 991.2 |
| 20260906094159 | 24 | 218 | 8.0 | 14.5 | 0.00 | 0.00 | 0.00 | 49 | 991.2 |
| 20260906093659 | 24 | 236 | 8.0 | 17.7 | 0.00 | 0.00 | 0.00 | 49 | 991.2 |
| 20260906093200 | 24 | 230 | 6.4 | 19.3 | 0.00 | 0.00 | 0.00 | 49 | 991.3 |
| 20260906092659 | 25 | 225 | 6.4 | 11.3 | 0.00 | 0.00 | 0.00 | 48 | 991.3 |
| 20260906092200 | 25 | 211 | 8.0 | 20.9 | 0.00 | 0.00 | 0.00 | 48 | 991.3 |
| 20260906091659 | 25 | 224 | 8.0 | 20.9 | 0.00 | 0.00 | 0.00 | 48 | 990.9 |
| 20260906091200 | 25 | 236 | 9.7 | 22.5 | 0.00 | 0.00 | 0.00 | 49 | 990.9 |
| 20260906090700 | 24 | 256 | 9.7 | 16.1 | 0.00 | 0.00 | 0.00 | 49 | 990.9 |
| 20260906090200 | 24 | 229 | 6.4 | 19.3 | 0.00 | 0.00 | 0.00 | 51 | 991.3 |
| 20260906085700 | 23 | 229 | 4.8 | 14.5 | 0.00 | 0.00 | 0.00 | 53 | 991.3 |
| 20260906085200 | 23 | 223 | 3.2 | 9.7 | 0.00 | 0.00 | 0.00 | 54 | 991.3 |
| 20260906084700 | 23 | 88 | 1.6 | 6.4 | 0.00 | 0.00 | 0.00 | 54 | 991.4 |
| 20260906084200 | 23 | 89 | 1.6 | 4.8 | 0.00 | 0.00 | 0.00 | 55 | 991.4 |
| 20260906083700 | 23 | 89 | 1.6 | 3.2 | 0.00 | 0.00 | 0.00 | 55 | 991.4 |
| 20260906083200 | 23 | 89 | 1.6 | 6.4 | 0.00 | 0.00 | 0.00 | 56 | 991.9 |
| 20260906082700 | 22 | 89 | 1.6 | 6.4 | 0.00 | 0.00 | 0.00 | 56 | 991.9 |
| 20260906082200 | 22 | 89 | 1.6 | 4.8 | 0.00 | 0.00 | 0.00 | 56 | 991.9 |
| 20260906081700 | 22 | 89 | 1.6 | 4.8 | 0.00 | 0.00 | 0.00 | 56 | 992.0 |
| 20260906081200 | 23 | 89 | 1.6 | 4.8 | 0.00 | 0.00 | 0.00 | 57 | 992.0 |
| 20260906080700 | 23 | 90 | 1.6 | 4.8 | 0.00 | 0.00 | 0.00 | 56 | 992.0 |
| 20260906080200 | 23 | 89 | 0.0 | 3.2 | 0.00 | 0.00 | 0.00 | 56 | 991.7 |
| 20260906075700 | 23 | 89 | 0.0 | 3.2 | 0.00 | 0.00 | 0.00 | 55 | 991.7 |
| 20260906075200 | 24 | 89 | 1.6 | 3.2 | 0.00 | 0.00 | 0.00 | 54 | 991.7 |
| 20260906074700 | 25 | 89 | 1.6 | 3.2 | 0.00 | 0.00 | 0.00 | 53 | 992.1 |
| 20260906074200 | 25 | 89 | 3.2 | 4.8 | 0.00 | 0.00 | 0.00 | 51 | 992.1 |
| 20260906073700 | 25 | 90 | 4.8 | 8.0 | 0.00 | 0.00 | 0.00 | 50 | 992.1 |
| 20260906073200 | 26 | 94 | 4.8 | 8.0 | 0.00 | 0.00 | 0.00 | 48 | 991.8 |
| 20260906072700 | 26 | 225 | 4.8 | 9.7 | 0.00 | 0.00 | 0.00 | 48 | 991.8 |
| 20260906072200 | 25 | 225 | 4.8 | 9.7 | 0.00 | 0.00 | 0.00 | 48 | 991.8 |
| 20260906071700 | 25 | 232 | 4.8 | 9.7 | 0.00 | 0.00 | 0.00 | 49 | 992.3 |
| 20260906071200 | 25 | 217 | 1.6 | 9.7 | 0.00 | 0.00 | 0.00 | 51 | 992.3 |
| 20260906070700 | 24 | 223 | 1.6 | 4.8 | 0.00 | 0.00 | 0.00 | 52 | 992.3 |
| 20260906070200 | 25 | 102 | 1.6 | 3.2 | 0.00 | 0.00 | 0.00 | 52 | 991.9 |
| 20260906065700 | 25 | 306 | 3.2 | 6.4 | 0.00 | 0.00 | 0.00 | 50 | 991.9 |
| 20260906065200 | 25 | 305 | 3.2 | 6.4 | 0.00 | 0.00 | 0.00 | 50 | 991.9 |
| 20260906064700 | 25 | 305 | 3.2 | 8.0 | 0.00 | 0.00 | 0.00 | 50 | 991.8 |
| 20260906064200 | 26 | 225 | 3.2 | 8.0 | 0.00 | 0.00 | 0.00 | 50 | 991.8 |
| 20260906063700 | 26 | 221 | 4.8 | 9.7 | 0.00 | 0.00 | 0.00 | 49 | 991.8 |
| 20260906063200 | 26 | 212 | 4.8 | 14.5 | 0.00 | 0.00 | 0.00 | 49 | 992.0 |
| 20260906062700 | 26 | 215 | 4.8 | 8.0 | 0.00 | 0.00 | 0.00 | 49 | 992.0 |
| 20260906062200 | 26 | 219 | 3.2 | 8.0 | 0.00 | 0.00 | 0.00 | 50 | 992.0 |
| 20260906061700 | 26 | 201 | 3.2 | 6.4 | 0.00 | 0.00 | 0.00 | 51 | 992.6 |
| 20260906061200 | 25 | 198 | 3.2 | 8.0 | 0.00 | 0.00 | 0.00 | 52 | 992.6 |
| 20260906060700 | 25 | 207 | 3.2 | 9.7 | 0.00 | 0.00 | 0.00 | 53 | 992.6 |
| 20260906060200 | 25 | 55 | 1.6 | 4.8 | 0.00 | 0.00 | 0.00 | 54 | 993.0 |
| 20260906055700 | 24 | 162 | 1.6 | 6.4 | 0.00 | 0.00 | 0.00 | 55 | 993.0 |
| 20260906055200 | 23 | 190 | 1.6 | 3.2 | 0.00 | 0.00 | 0.00 | 55 | 993.0 |
| 20260906054700 | 22 | 212 | 1.6 | 6.4 | 0.00 | 0.00 | 0.00 | 57 | 993.3 |
| 20260906054200 | 22 | 167 | 1.6 | 4.8 | 0.00 | 0.00 | 0.00 | 54 | 993.3 |
| 20260906053700 | 22 | 167 | 3.2 | 3.2 | 0.00 | 0.00 | 0.00 | 53 | 993.3 |
| 20260906053200 | 22 | 167 | 3.2 | 4.8 | 0.00 | 0.00 | 0.00 | 52 | 993.9 |
| 20260906052700 | 22 | 167 | 1.6 | 4.8 | 0.00 | 0.00 | 0.00 | 52 | 993.9 |
| 20260906052200 | 23 | 167 | 0.0 | 3.2 | 0.00 | 0.00 | 0.00 | 51 | 993.9 |
| 20260906051700 | 23 | 167 | 0.0 | 3.2 | 0.00 | 0.00 | 0.00 | 50 | 993.5 |
| 20260906051200 | 23 | 167 | 0.0 | 0.0 | 0.00 | 0.00 | 0.00 | 50 | 993.5 |
| 20260906050700 | 23 | 167 | 1.6 | 3.2 | 0.00 | 0.00 | 0.00 | 50 | 993.5 |
| 20260906050200 | 23 | 167 | 1.6 | 4.8 | 0.00 | 0.00 | 0.00 | 49 | 993.3 |
| 20260906045700 | 23 | 167 | 0.0 | 3.2 | 0.00 | 0.00 | 0.00 | 49 | 993.3 |
| 20260906045200 | 23 | 167 | 0.0 | 3.2 | 0.00 | 0.00 | 0.00 | 48 | 993.3 |
| 20260906044700 | 23 | 167 | 0.0 | 1.6 | 0.00 | 0.00 | 0.00 | 48 | 992.9 |
| 20260906044200 | 24 | 167 | 0.0 | 1.6 | 0.00 | 0.00 | 0.00 | 48 | 992.9 |
| 20260906043700 | 24 | 167 | 1.6 | 4.8 | 0.00 | 0.00 | 0.00 | 47 | 992.9 |
| 20260906043200 | 24 | 167 | 1.6 | 4.8 | 0.00 | 0.00 | 0.00 | 47 | 993.1 |
| 20260906042700 | 25 | 167 | 1.6 | 3.2 | 0.00 | 0.00 | 0.00 | 46 | 993.1 |
| 20260906042200 | 25 | 167 | 0.0 | 3.2 | 0.00 | 0.00 | 0.00 | 45 | 993.1 |
| 20260906041700 | 25 | 167 | 0.0 | 0.0 | 0.00 | 0.00 | 0.00 | 45 | 992.9 |
| 20260906041200 | 25 | 167 | 0.0 | 1.6 | 0.00 | 0.00 | 0.00 | 45 | 992.9 |
| 20260906040700 | 26 | 167 | 0.0 | 3.2 | 0.00 | 0.00 | 0.00 | 44 | 992.9 |
| 20260906040200 | 26 | 167 | 1.6 | 4.8 | 0.00 | 0.00 | 0.00 | 44 | 992.9 |
| 20260906035700 | 26 | 167 | 1.6 | 3.2 | 0.00 | 0.00 | 0.00 | 44 | 992.9 |
| 20260906035200 | 26 | 167 | 0.0 | 3.2 | 0.00 | 0.00 | 0.00 | 43 | 992.9 |
| 20260906034700 | 26 | 167 | 0.0 | 1.6 | 0.00 | 0.00 | 0.00 | 43 | 993.2 |
| 20260906034200 | 27 | 167 | 0.0 | 1.6 | 0.00 | 0.00 | 0.00 | 42 | 993.2 |
| 20260906033700 | 27 | 167 | 0.0 | 0.0 | 0.00 | 0.00 | 0.00 | 42 | 993.2 |
| 20260906033200 | 27 | 167 | 0.0 | 0.0 | 0.00 | 0.00 | 0.00 | 42 | 993.1 |
| 20260906032700 | 27 | 167 | 0.0 | 1.6 | 0.00 | 0.00 | 0.00 | 41 | 993.1 |
| 20260906032200 | 27 | 167 | 1.6 | 1.6 | 0.00 | 0.00 | 0.00 | 41 | 993.1 |
| 20260906031700 | 27 | 167 | 1.6 | 4.8 | 0.00 | 0.00 | 0.00 | 41 | 992.8 |
| 20260906031200 | 27 | 167 | 1.6 | 4.8 | 0.00 | 0.00 | 0.00 | 41 | 992.8 |
| 20260906030700 | 27 | 167 | 1.6 | 8.0 | 0.00 | 0.00 | 0.00 | 41 | 992.8 |
| 20260906030200 | 27 | 177 | 3.2 | 4.8 | 0.00 | 0.00 | 0.00 | 41 | 992.6 |
| 20260906025700 | 27 | 166 | 3.2 | 6.4 | 0.00 | 0.00 | 0.00 | 41 | 992.6 |
| 20260906025200 | 27 | 166 | 3.2 | 9.7 | 0.00 | 0.00 | 0.00 | 41 | 992.6 |
| 20260906024700 | 27 | 200 | 3.2 | 6.4 | 0.00 | 0.00 | 0.00 | 41 | 992.4 |
| 20260906024200 | 27 | 175 | 1.6 | 8.0 | 0.00 | 0.00 | 0.00 | 40 | 992.4 |
| 20260906023700 | 27 | 190 | 1.6 | 6.4 | 0.00 | 0.00 | 0.00 | 39 | 992.4 |
| 20260906023200 | 27 | 180 | 3.2 | 6.4 | 0.00 | 0.00 | 0.00 | 39 | 992.2 |
| 20260906022700 | 27 | 217 | 3.2 | 6.4 | 0.00 | 0.00 | 0.00 | 39 | 992.2 |
| 20260906022200 | 27 | 216 | 3.2 | 9.7 | 0.00 | 0.00 | 0.00 | 39 | 992.2 |
| 20260906021700 | 27 | 176 | 1.6 | 6.4 | 0.00 | 0.00 | 0.00 | 39 | 992.1 |
| 20260906021200 | 27 | 181 | 0.0 | 3.2 | 0.00 | 0.00 | 0.00 | 39 | 992.1 |
| 20260906020700 | 27 | 180 | 1.6 | 6.4 | 0.00 | 0.00 | 0.00 | 39 | 992.1 |
| 20260906020200 | 27 | 178 | 1.6 | 4.8 | 0.00 | 0.00 | 0.00 | 39 | 992.2 |
| 20260906015700 | 27 | 178 | 1.6 | 6.4 | 0.00 | 0.00 | 0.00 | 39 | 992.2 |
| 20260906015200 | 28 | 178 | 1.6 | 6.4 | 0.00 | 0.00 | 0.00 | 38 | 992.2 |
| 20260906014700 | 28 | 211 | 3.2 | 8.0 | 0.00 | 0.00 | 0.00 | 38 | 991.5 |
| 20260906014200 | 28 | 164 | 3.2 | 8.0 | 0.00 | 0.00 | 0.00 | 37 | 991.5 |
| 20260906013700 | 28 | 161 | 1.6 | 8.0 | 0.00 | 0.00 | 0.00 | 37 | 991.5 |
| 20260906013200 | 28 | 203 | 3.2 | 6.4 | 0.00 | 0.00 | 0.00 | 36 | 991.6 |
| 20260906012701 | 28 | 210 | 3.2 | 8.0 | 0.00 | 0.00 | 0.00 | 34 | 991.6 |
| 20260906012201 | 28 | 178 | 3.2 | 4.8 | 0.00 | 0.00 | 0.00 | 34 | 991.6 |
| 20260906011701 | 28 | 196 | 1.6 | 4.8 | 0.00 | 0.00 | 0.00 | 33 | 991.7 |
| 20260906011201 | 28 | 175 | 1.6 | 3.2 | 0.00 | 0.00 | 0.00 | 33 | 991.7 |
| 20260906010701 | 28 | 175 | 1.6 | 8.0 | 0.00 | 0.00 | 0.00 | 32 | 991.7 |
| 20260906010201 | 28 | 186 | 1.6 | 4.8 | 0.00 | 0.00 | 0.00 | 32 | 991.9 |
| 20260906005701 | 29 | 179 | 1.6 | 8.0 | 0.00 | 0.00 | 0.00 | 31 | 991.9 |
| 20260906005201 | 29 | 164 | 3.2 | 6.4 | 0.00 | 0.00 | 0.00 | 31 | 991.9 |
| 20260906004701 | 29 | 153 | 3.2 | 9.7 | 0.00 | 0.00 | 0.00 | 30 | 992.8 |
| 20260906004201 | 29 | 130 | 4.8 | 6.4 | 0.00 | 0.00 | 0.00 | 30 | 992.8 |
| 20260906003701 | 29 | 121 | 4.8 | 11.3 | 0.00 | 0.00 | 0.00 | 30 | 992.8 |
| 20260906003201 | 29 | 159 | 3.2 | 8.0 | 0.00 | 0.00 | 0.00 | 30 | 992.8 |
| 20260906002701 | 30 | 158 | 3.2 | 6.4 | 0.00 | 0.00 | 0.00 | 29 | 992.8 |
| 20260906002201 | 30 | 139 | 3.2 | 9.7 | 0.00 | 0.00 | 0.00 | 29 | 992.8 |
| 20260906001701 | 30 | 159 | 1.6 | 9.7 | 0.00 | 0.00 | 0.00 | 29 | 992.4 |
| 20260906001201 | 30 | 173 | 3.2 | 9.7 | 0.00 | 0.00 | 0.00 | 30 | 992.4 |
| 20260906000701 | 30 | 171 | 3.2 | 8.0 | 0.00 | 0.00 | 0.00 | 29 | 992.4 |
| 20260906000201 | 30 | 161 | 3.2 | 8.0 | 0.00 | 0.00 | 0.00 | 29 | 992.1 |
| 20260905235701 | 30 | 165 | 3.2 | 6.4 | 0.00 | 0.00 | 0.00 | 29 | 992.1 |
| 20260905235201 | 30 | 124 | 0.0 | 6.4 | 0.00 | 0.00 | 0.00 | 30 | 992.1 |
| 20260905234701 | 30 | 161 | 0.0 | 1.6 | 0.00 | 0.00 | 0.00 | 31 | 991.5 |
| 20260905234201 | 30 | 161 | 0.0 | 1.6 | 0.00 | 0.00 | 0.00 | 30 | 991.5 |
| 20260905233701 | 30 | 161 | 0.0 | 1.6 | 0.00 | 0.00 | 0.00 | 31 | 991.5 |
| 20260905233201 | 30 | 161 | 0.0 | 3.2 | 0.00 | 0.00 | 0.00 | 30 | 991.4 |
| 20260905232701 | 30 | 161 | 1.6 | 4.8 | 0.00 | 0.00 | 0.00 | 30 | 991.4 |
| 20260905232201 | 30 | 161 | 1.6 | 3.2 | 0.00 | 0.00 | 0.00 | 30 | 991.4 |
| 20260905231701 | 30 | 163 | 1.6 | 4.8 | 0.00 | 0.00 | 0.00 | 31 | 990.8 |
| 20260905231201 | 30 | 162 | 1.6 | 8.0 | 0.00 | 0.00 | 0.00 | 31 | 990.8 |
| 20260905230701 | 30 | 163 | 3.2 | 8.0 | 0.00 | 0.00 | 0.00 | 30 | 990.8 |
| 20260905230201 | 30 | 165 | 4.8 | 8.0 | 0.00 | 0.00 | 0.00 | 30 | 990.7 |
| 20260905225701 | 31 | 156 | 3.2 | 6.4 | 0.00 | 0.00 | 0.00 | 30 | 990.7 |
| 20260905225201 | 31 | 70 | 3.2 | 8.0 | 0.00 | 0.00 | 0.00 | 31 | 990.7 |
| 20260905224701 | 31 | 137 | 3.2 | 11.3 | 0.00 | 0.00 | 0.00 | 30 | 990.6 |
| 20260905224201 | 31 | 84 | 3.2 | 11.3 | 0.00 | 0.00 | 0.00 | 31 | 990.6 |
| 20260905223701 | 31 | 178 | 1.6 | 6.4 | 0.00 | 0.00 | 0.00 | 30 | 990.6 |
| 20260905223201 | 31 | 85 | 1.6 | 4.8 | 0.00 | 0.00 | 0.00 | 30 | 990.5 |
| 20260905222701 | 31 | 82 | 3.2 | 9.7 | 0.00 | 0.00 | 0.00 | 29 | 990.5 |
| 20260905222201 | 31 | 76 | 3.2 | 11.3 | 0.00 | 0.00 | 0.00 | 29 | 990.5 |
| 20260905221701 | 31 | 132 | 3.2 | 8.0 | 0.00 | 0.00 | 0.00 | 28 | 990.5 |
| 20260905221201 | 31 | 68 | 4.8 | 9.7 | 0.00 | 0.00 | 0.00 | 28 | 990.5 |
| 20260905220701 | 32 | 92 | 4.8 | 9.7 | 0.00 | 0.00 | 0.00 | 26 | 990.5 |
| 20260905220201 | 32 | 99 | 3.2 | 8.0 | 0.00 | 0.00 | 0.00 | 26 | 990.4 |
| 20260905215701 | 32 | 71 | 3.2 | 8.0 | 0.00 | 0.00 | 0.00 | 25 | 990.4 |
| 20260905215201 | 32 | 100 | 3.2 | 9.7 | 0.00 | 0.00 | 0.00 | 26 | 990.4 |
| 20260905214701 | 32 | 79 | 3.2 | 9.7 | 0.00 | 0.00 | 0.00 | 27 | 990.5 |
| 20260905214201 | 32 | 78 | 4.8 | 9.7 | 0.00 | 0.00 | 0.00 | 28 | 990.5 |
| 20260905213701 | 32 | 85 | 3.2 | 8.0 | 0.00 | 0.00 | 0.00 | 27 | 990.5 |
| 20260905213201 | 32 | 116 | 0.0 | 1.6 | 0.00 | 0.00 | 0.00 | 27 | 990.6 |
| 20260905212701 | 32 | 116 | 0.0 | 3.2 | 0.00 | 0.00 | 0.00 | 29 | 990.6 |
| 20260905212201 | 32 | 116 | 0.0 | 3.2 | 0.00 | 0.00 | 0.00 | 26 | 990.6 |